sensor_id;sensor_type;location;lat;lon;timestamp;temperature;humidity
34574;DHT22;20809;49.594;8.734;2023-02-01T00:00:37;4.50;99.90
34574;DHT22;20809;49.594;8.734;2023-02-01T00:03:39;4.50;99.90
34574;DHT22;20809;49.594;8.734;2023-02-01T00:06:40;4.50;99.90
34574;DHT22;20809;49.594;8.734;2023-02-01T00:09:40;4.50;99.90
34574;DHT22;20809;49.594;8.734;2023-02-01T00:12:41;4.50;99.90
34574;DHT22;20809;49.594;8.734;2023-02-01T00:15:42;4.50;99.90
34574;DHT22;20809;49.594;8.734;2023-02-01T00:18:48;4.60;99.90
34574;DHT22;20809;49.594;8.734;2023-02-01T00:21:49;4.50;99.90
34574;DHT22;20809;49.594;8.734;2023-02-01T00:24:50;4.50;99.90
34574;DHT22;20809;49.594;8.734;2023-02-01T00:27:51;4.60;99.90
34574;DHT22;20809;49.594;8.734;2023-02-01T00:31:03;4.50;99.90
34574;DHT22;20809;49.594;8.734;2023-02-01T00:34:04;4.50;99.90
34574;DHT22;20809;49.594;8.734;2023-02-01T00:37:05;4.50;99.90
34574;DHT22;20809;49.594;8.734;2023-02-01T00:40:06;4.50;99.90
34574;DHT22;20809;49.594;8.734;2023-02-01T00:43:07;4.50;99.90
34574;DHT22;20809;49.594;8.734;2023-02-01T00:46:09;4.40;99.90
34574;DHT22;20809;49.594;8.734;2023-02-01T00:49:10;4.40;99.90
34574;DHT22;20809;49.594;8.734;2023-02-01T00:52:11;4.50;99.90
34574;DHT22;20809;49.594;8.734;2023-02-01T00:55:11;4.50;99.90
34574;DHT22;20809;49.594;8.734;2023-02-01T00:58:12;4.40;99.90
34574;DHT22;20809;49.594;8.734;2023-02-01T01:01:21;4.40;99.90
34574;DHT22;20809;49.594;8.734;2023-02-01T01:04:23;4.40;99.90
34574;DHT22;20809;49.594;8.734;2023-02-01T01:07:23;4.50;99.90
34574;DHT22;20809;49.594;8.734;2023-02-01T01:10:24;4.50;99.90
34574;DHT22;20809;49.594;8.734;2023-02-01T01:13:25;4.50;99.90
34574;DHT22;20809;49.594;8.734;2023-02-01T01:16:28;4.50;99.90
34574;DHT22;20809;49.594;8.734;2023-02-01T01:19:29;4.50;99.90
34574;DHT22;20809;49.594;8.734;2023-02-01T01:22:30;4.50;99.90
34574;DHT22;20809;49.594;8.734;2023-02-01T01:25:31;4.50;99.90
34574;DHT22;20809;49.594;8.734;2023-02-01T01:28:34;4.50;99.90
34574;DHT22;20809;49.594;8.734;2023-02-01T01:31:35;4.50;99.90
34574;DHT22;20809;49.594;8.734;2023-02-01T01:34:36;4.50;99.90
34574;DHT22;20809;49.594;8.734;2023-02-01T01:37:37;4.60;99.90
34574;DHT22;20809;49.594;8.734;2023-02-01T01:40:45;4.50;99.90
34574;DHT22;20809;49.594;8.734;2023-02-01T01:46:55;4.60;99.90
34574;DHT22;20809;49.594;8.734;2023-02-01T01:49:56;4.60;99.90
34574;DHT22;20809;49.594;8.734;2023-02-01T01:52:59;4.50;99.90
34574;DHT22;20809;49.594;8.734;2023-02-01T01:59:08;4.60;99.90
34574;DHT22;20809;49.594;8.734;2023-02-01T02:02:10;4.50;99.90
34574;DHT22;20809;49.594;8.734;2023-02-01T02:05:12;4.50;99.90
34574;DHT22;20809;49.594;8.734;2023-02-01T02:08:17;4.60;99.90
34574;DHT22;20809;49.594;8.734;2023-02-01T02:11:20;4.60;99.90
34574;DHT22;20809;49.594;8.734;2023-02-01T02:14:22;4.50;99.90
34574;DHT22;20809;49.594;8.734;2023-02-01T02:17:29;4.50;99.90
34574;DHT22;20809;49.594;8.734;2023-02-01T02:24:19;4.60;99.90
34574;DHT22;20809;49.594;8.734;2023-02-01T02:34:17;4.60;99.90
34574;DHT22;20809;49.594;8.734;2023-02-01T02:41:00;4.60;99.90
34574;DHT22;20809;49.594;8.734;2023-02-01T02:44:13;4.60;99.90
34574;DHT22;20809;49.594;8.734;2023-02-01T02:51:20;4.60;99.90
34574;DHT22;20809;49.594;8.734;2023-02-01T02:54:46;4.60;99.90
34574;DHT22;20809;49.594;8.734;2023-02-01T02:57:47;4.60;99.90
34574;DHT22;20809;49.594;8.734;2023-02-01T03:01:07;4.50;99.90
34574;DHT22;20809;49.594;8.734;2023-02-01T03:04:26;4.50;99.90
34574;DHT22;20809;49.594;8.734;2023-02-01T03:14:02;4.50;99.90
34574;DHT22;20809;49.594;8.734;2023-02-01T03:17:14;4.60;99.90
34574;DHT22;20809;49.594;8.734;2023-02-01T03:20:19;4.50;99.90
34574;DHT22;20809;49.594;8.734;2023-02-01T03:23:23;4.60;99.90
34574;DHT22;20809;49.594;8.734;2023-02-01T03:26:29;4.60;99.90
34574;DHT22;20809;49.594;8.734;2023-02-01T03:29:38;4.60;99.90
34574;DHT22;20809;49.594;8.734;2023-02-01T03:32:45;4.60;99.90
34574;DHT22;20809;49.594;8.734;2023-02-01T03:39:31;4.60;99.90
34574;DHT22;20809;49.594;8.734;2023-02-01T03:42:47;4.60;99.90
34574;DHT22;20809;49.594;8.734;2023-02-01T03:45:56;4.60;99.90
34574;DHT22;20809;49.594;8.734;2023-02-01T03:49:04;4.60;99.90
34574;DHT22;20809;49.594;8.734;2023-02-01T03:52:08;4.60;99.90
34574;DHT22;20809;49.594;8.734;2023-02-01T03:55:12;4.60;99.90
34574;DHT22;20809;49.594;8.734;2023-02-01T03:58:19;4.60;99.90
34574;DHT22;20809;49.594;8.734;2023-02-01T04:01:20;4.60;99.90
34574;DHT22;20809;49.594;8.734;2023-02-01T04:04:21;4.60;99.90
34574;DHT22;20809;49.594;8.734;2023-02-01T04:07:22;4.60;99.90
34574;DHT22;20809;49.594;8.734;2023-02-01T04:10:23;4.60;99.90
34574;DHT22;20809;49.594;8.734;2023-02-01T04:13:24;4.60;99.90
34574;DHT22;20809;49.594;8.734;2023-02-01T04:16:25;4.60;99.90
34574;DHT22;20809;49.594;8.734;2023-02-01T04:19:25;4.60;99.90
34574;DHT22;20809;49.594;8.734;2023-02-01T04:22:26;4.50;99.90
34574;DHT22;20809;49.594;8.734;2023-02-01T04:25:27;4.60;99.90
34574;DHT22;20809;49.594;8.734;2023-02-01T04:28:29;4.50;99.90
34574;DHT22;20809;49.594;8.734;2023-02-01T04:31:29;4.60;99.90
34574;DHT22;20809;49.594;8.734;2023-02-01T04:34:30;4.50;99.90
34574;DHT22;20809;49.594;8.734;2023-02-01T04:37:31;4.50;99.90
34574;DHT22;20809;49.594;8.734;2023-02-01T04:40:32;4.50;99.90
34574;DHT22;20809;49.594;8.734;2023-02-01T04:43:33;4.60;99.90
34574;DHT22;20809;49.594;8.734;2023-02-01T04:46:34;4.50;99.90
34574;DHT22;20809;49.594;8.734;2023-02-01T04:49:35;4.50;99.90
34574;DHT22;20809;49.594;8.734;2023-02-01T04:52:37;4.60;99.90
34574;DHT22;20809;49.594;8.734;2023-02-01T04:55:38;4.50;99.90
34574;DHT22;20809;49.594;8.734;2023-02-01T04:58:39;4.50;99.90
34574;DHT22;20809;49.594;8.734;2023-02-01T05:01:40;4.50;99.90
34574;DHT22;20809;49.594;8.734;2023-02-01T05:04:40;4.40;99.90
34574;DHT22;20809;49.594;8.734;2023-02-01T05:07:41;4.50;99.90
34574;DHT22;20809;49.594;8.734;2023-02-01T05:10:42;4.50;99.90
34574;DHT22;20809;49.594;8.734;2023-02-01T05:13:45;4.40;99.90
34574;DHT22;20809;49.594;8.734;2023-02-01T05:16:49;4.40;99.90
34574;DHT22;20809;49.594;8.734;2023-02-01T05:19:49;4.40;99.90
34574;DHT22;20809;49.594;8.734;2023-02-01T05:22:50;4.40;99.90
34574;DHT22;20809;49.594;8.734;2023-02-01T05:25:51;4.50;99.90
34574;DHT22;20809;49.594;8.734;2023-02-01T05:28:52;4.50;99.90
34574;DHT22;20809;49.594;8.734;2023-02-01T05:31:53;4.40;99.90
34574;DHT22;20809;49.594;8.734;2023-02-01T05:34:54;4.40;99.90
34574;DHT22;20809;49.594;8.734;2023-02-01T05:37:55;4.40;99.90
34574;DHT22;20809;49.594;8.734;2023-02-01T05:40:56;4.40;99.90
34574;DHT22;20809;49.594;8.734;2023-02-01T05:43:57;4.40;99.90
34574;DHT22;20809;49.594;8.734;2023-02-01T05:46:58;4.30;99.90
34574;DHT22;20809;49.594;8.734;2023-02-01T05:49:59;4.40;99.90
34574;DHT22;20809;49.594;8.734;2023-02-01T05:52:59;4.40;99.90
34574;DHT22;20809;49.594;8.734;2023-02-01T05:56:00;4.40;99.90
34574;DHT22;20809;49.594;8.734;2023-02-01T05:59:01;4.40;99.90
34574;DHT22;20809;49.594;8.734;2023-02-01T06:02:02;4.40;99.90
34574;DHT22;20809;49.594;8.734;2023-02-01T06:05:03;4.40;99.90
34574;DHT22;20809;49.594;8.734;2023-02-01T06:08:03;4.40;99.90
34574;DHT22;20809;49.594;8.734;2023-02-01T06:11:05;4.40;99.90
34574;DHT22;20809;49.594;8.734;2023-02-01T06:14:05;4.40;99.90
34574;DHT22;20809;49.594;8.734;2023-02-01T06:17:08;4.40;99.90
34574;DHT22;20809;49.594;8.734;2023-02-01T06:20:10;4.40;99.90
34574;DHT22;20809;49.594;8.734;2023-02-01T06:23:11;4.30;99.90
34574;DHT22;20809;49.594;8.734;2023-02-01T06:26:12;4.40;99.90
34574;DHT22;20809;49.594;8.734;2023-02-01T06:29:12;4.30;99.90
34574;DHT22;20809;49.594;8.734;2023-02-01T06:32:13;4.30;99.90
34574;DHT22;20809;49.594;8.734;2023-02-01T06:35:14;4.30;99.90
34574;DHT22;20809;49.594;8.734;2023-02-01T06:38:16;4.40;99.90
34574;DHT22;20809;49.594;8.734;2023-02-01T06:41:17;4.40;99.90
34574;DHT22;20809;49.594;8.734;2023-02-01T06:44:20;4.40;99.90
34574;DHT22;20809;49.594;8.734;2023-02-01T06:47:21;4.40;99.90
34574;DHT22;20809;49.594;8.734;2023-02-01T06:50:22;4.40;99.90
34574;DHT22;20809;49.594;8.734;2023-02-01T06:53:23;4.40;99.90
34574;DHT22;20809;49.594;8.734;2023-02-01T06:56:24;4.50;99.90
34574;DHT22;20809;49.594;8.734;2023-02-01T06:59:25;4.50;99.90
34574;DHT22;20809;49.594;8.734;2023-02-01T07:02:26;4.50;99.90
34574;DHT22;20809;49.594;8.734;2023-02-01T07:05:27;4.50;99.90
34574;DHT22;20809;49.594;8.734;2023-02-01T07:08:29;4.50;99.90
34574;DHT22;20809;49.594;8.734;2023-02-01T07:11:30;4.50;99.90
34574;DHT22;20809;49.594;8.734;2023-02-01T07:14:31;4.50;99.90
34574;DHT22;20809;49.594;8.734;2023-02-01T07:17:32;4.50;99.90
34574;DHT22;20809;49.594;8.734;2023-02-01T07:20:34;4.50;99.90
34574;DHT22;20809;49.594;8.734;2023-02-01T07:23:38;4.50;99.90
34574;DHT22;20809;49.594;8.734;2023-02-01T07:26:39;4.60;99.90
34574;DHT22;20809;49.594;8.734;2023-02-01T07:29:40;4.60;99.90
34574;DHT22;20809;49.594;8.734;2023-02-01T07:32:41;4.60;99.90
34574;DHT22;20809;49.594;8.734;2023-02-01T07:35:41;4.60;99.90
34574;DHT22;20809;49.594;8.734;2023-02-01T07:38:42;4.60;99.90
34574;DHT22;20809;49.594;8.734;2023-02-01T07:41:43;4.50;99.90
34574;DHT22;20809;49.594;8.734;2023-02-01T07:44:44;4.40;99.90
34574;DHT22;20809;49.594;8.734;2023-02-01T07:47:45;4.40;99.90
34574;DHT22;20809;49.594;8.734;2023-02-01T07:50:45;4.40;99.90
34574;DHT22;20809;49.594;8.734;2023-02-01T07:53:46;4.30;99.90
34574;DHT22;20809;49.594;8.734;2023-02-01T07:56:50;4.30;99.90
34574;DHT22;20809;49.594;8.734;2023-02-01T07:59:51;4.30;99.90
34574;DHT22;20809;49.594;8.734;2023-02-01T08:03:11;4.20;99.90
34574;DHT22;20809;49.594;8.734;2023-02-01T08:06:14;4.20;99.90
34574;DHT22;20809;49.594;8.734;2023-02-01T08:09:15;4.30;99.90
34574;DHT22;20809;49.594;8.734;2023-02-01T08:12:16;4.30;99.90
34574;DHT22;20809;49.594;8.734;2023-02-01T08:15:18;4.40;99.90
34574;DHT22;20809;49.594;8.734;2023-02-01T08:18:19;4.50;99.90
34574;DHT22;20809;49.594;8.734;2023-02-01T08:21:26;4.60;99.90
34574;DHT22;20809;49.594;8.734;2023-02-01T08:24:36;4.60;99.90
34574;DHT22;20809;49.594;8.734;2023-02-01T08:27:40;4.70;99.90
34574;DHT22;20809;49.594;8.734;2023-02-01T08:30:40;4.80;99.90
34574;DHT22;20809;49.594;8.734;2023-02-01T08:33:51;4.80;99.90
34574;DHT22;20809;49.594;8.734;2023-02-01T08:36:55;4.70;99.90
34574;DHT22;20809;49.594;8.734;2023-02-01T08:40:00;4.70;99.90
34574;DHT22;20809;49.594;8.734;2023-02-01T08:43:01;4.70;99.90
34574;DHT22;20809;49.594;8.734;2023-02-01T08:46:03;4.70;99.90
34574;DHT22;20809;49.594;8.734;2023-02-01T08:49:04;4.80;99.90
34574;DHT22;20809;49.594;8.734;2023-02-01T08:52:05;4.90;99.90
34574;DHT22;20809;49.594;8.734;2023-02-01T08:55:06;4.90;99.90
34574;DHT22;20809;49.594;8.734;2023-02-01T08:58:07;5.00;99.90
34574;DHT22;20809;49.594;8.734;2023-02-01T09:01:14;5.00;99.90
34574;DHT22;20809;49.594;8.734;2023-02-01T09:04:15;5.00;99.90
34574;DHT22;20809;49.594;8.734;2023-02-01T09:07:17;5.10;99.90
34574;DHT22;20809;49.594;8.734;2023-02-01T09:10:18;5.10;99.90
34574;DHT22;20809;49.594;8.734;2023-02-01T09:13:19;5.10;99.90
34574;DHT22;20809;49.594;8.734;2023-02-01T09:16:20;5.20;99.90
34574;DHT22;20809;49.594;8.734;2023-02-01T09:19:21;5.40;99.90
34574;DHT22;20809;49.594;8.734;2023-02-01T09:22:24;5.50;99.90
34574;DHT22;20809;49.594;8.734;2023-02-01T09:25:26;5.40;99.90
34574;DHT22;20809;49.594;8.734;2023-02-01T09:28:26;5.40;99.90
34574;DHT22;20809;49.594;8.734;2023-02-01T09:31:27;5.40;99.90
34574;DHT22;20809;49.594;8.734;2023-02-01T09:34:28;5.40;99.90
34574;DHT22;20809;49.594;8.734;2023-02-01T09:37:43;5.40;99.90
34574;DHT22;20809;49.594;8.734;2023-02-01T09:40:49;5.40;99.90
34574;DHT22;20809;49.594;8.734;2023-02-01T09:47:21;5.50;99.90
34574;DHT22;20809;49.594;8.734;2023-02-01T09:50:43;5.60;99.90
34574;DHT22;20809;49.594;8.734;2023-02-01T09:57:13;5.50;99.90
34574;DHT22;20809;49.594;8.734;2023-02-01T10:00:25;5.60;99.90
34574;DHT22;20809;49.594;8.734;2023-02-01T10:03:33;5.60;99.90
34574;DHT22;20809;49.594;8.734;2023-02-01T10:06:44;5.60;99.90
34574;DHT22;20809;49.594;8.734;2023-02-01T10:10:11;5.70;99.90
34574;DHT22;20809;49.594;8.734;2023-02-01T10:13:24;5.70;99.90
34574;DHT22;20809;49.594;8.734;2023-02-01T10:16:41;5.80;99.90
34574;DHT22;20809;49.594;8.734;2023-02-01T10:23:32;5.70;99.90
34574;DHT22;20809;49.594;8.734;2023-02-01T10:26:39;5.70;99.90
34574;DHT22;20809;49.594;8.734;2023-02-01T10:29:45;5.70;99.90
34574;DHT22;20809;49.594;8.734;2023-02-01T10:32:54;5.70;99.90
34574;DHT22;20809;49.594;8.734;2023-02-01T10:36:10;5.70;99.90
34574;DHT22;20809;49.594;8.734;2023-02-01T10:39:14;5.70;99.90
34574;DHT22;20809;49.594;8.734;2023-02-01T10:42:23;5.70;99.90
34574;DHT22;20809;49.594;8.734;2023-02-01T10:45:27;5.70;99.90
34574;DHT22;20809;49.594;8.734;2023-02-01T10:48:28;5.70;99.90
34574;DHT22;20809;49.594;8.734;2023-02-01T10:55:48;5.70;99.90
34574;DHT22;20809;49.594;8.734;2023-02-01T10:59:00;5.80;99.90
34574;DHT22;20809;49.594;8.734;2023-02-01T11:02:27;5.80;99.90
34574;DHT22;20809;49.594;8.734;2023-02-01T11:05:46;5.90;99.90
34574;DHT22;20809;49.594;8.734;2023-02-01T11:08:51;5.90;99.90
34574;DHT22;20809;49.594;8.734;2023-02-01T11:11:56;6.00;99.90
34574;DHT22;20809;49.594;8.734;2023-02-01T11:15:19;6.00;99.90
34574;DHT22;20809;49.594;8.734;2023-02-01T11:18:27;6.10;99.90
34574;DHT22;20809;49.594;8.734;2023-02-01T11:21:28;6.00;99.90
34574;DHT22;20809;49.594;8.734;2023-02-01T11:24:33;6.10;99.90
34574;DHT22;20809;49.594;8.734;2023-02-01T11:27:36;6.10;99.90
34574;DHT22;20809;49.594;8.734;2023-02-01T11:30:42;6.10;99.90
34574;DHT22;20809;49.594;8.734;2023-02-01T11:33:51;6.00;99.90
34574;DHT22;20809;49.594;8.734;2023-02-01T11:36:58;5.90;99.90
34574;DHT22;20809;49.594;8.734;2023-02-01T11:43:28;5.90;99.90
34574;DHT22;20809;49.594;8.734;2023-02-01T11:46:33;5.90;99.90
34574;DHT22;20809;49.594;8.734;2023-02-01T11:49:37;5.90;99.90
34574;DHT22;20809;49.594;8.734;2023-02-01T12:12:38;6.10;99.90
34574;DHT22;20809;49.594;8.734;2023-02-01T12:16:00;6.20;99.90
34574;DHT22;20809;49.594;8.734;2023-02-01T12:19:27;6.20;99.90
34574;DHT22;20809;49.594;8.734;2023-02-01T12:36:50;6.10;99.90
34574;DHT22;20809;49.594;8.734;2023-02-01T12:40:23;6.10;99.90
34574;DHT22;20809;49.594;8.734;2023-02-01T12:43:49;6.20;99.90
34574;DHT22;20809;49.594;8.734;2023-02-01T12:47:00;6.20;99.90
34574;DHT22;20809;49.594;8.734;2023-02-01T12:53:27;6.20;99.90
34574;DHT22;20809;49.594;8.734;2023-02-01T12:56:37;6.20;99.90
34574;DHT22;20809;49.594;8.734;2023-02-01T12:59:48;6.10;99.90
34574;DHT22;20809;49.594;8.734;2023-02-01T13:02:59;6.00;99.90
34574;DHT22;20809;49.594;8.734;2023-02-01T13:06:15;6.00;99.90
34574;DHT22;20809;49.594;8.734;2023-02-01T13:09:49;6.00;99.90
34574;DHT22;20809;49.594;8.734;2023-02-01T13:12:56;6.00;99.90
34574;DHT22;20809;49.594;8.734;2023-02-01T13:19:35;6.00;99.90
34574;DHT22;20809;49.594;8.734;2023-02-01T13:22:40;6.00;99.90
34574;DHT22;20809;49.594;8.734;2023-02-01T13:25:48;6.10;99.90
34574;DHT22;20809;49.594;8.734;2023-02-01T13:42:23;6.10;99.90
34574;DHT22;20809;49.594;8.734;2023-02-01T13:45:32;6.10;99.90
34574;DHT22;20809;49.594;8.734;2023-02-01T13:48:39;6.10;99.90
34574;DHT22;20809;49.594;8.734;2023-02-01T13:51:44;6.00;99.90
34574;DHT22;20809;49.594;8.734;2023-02-01T13:54:50;6.00;99.90
34574;DHT22;20809;49.594;8.734;2023-02-01T13:58:20;6.00;99.90
34574;DHT22;20809;49.594;8.734;2023-02-01T14:04:55;6.00;99.90
34574;DHT22;20809;49.594;8.734;2023-02-01T14:08:25;6.00;99.90
34574;DHT22;20809;49.594;8.734;2023-02-01T14:11:43;6.00;99.90
34574;DHT22;20809;49.594;8.734;2023-02-01T14:14:45;6.00;99.90
34574;DHT22;20809;49.594;8.734;2023-02-01T14:17:46;6.00;99.90
34574;DHT22;20809;49.594;8.734;2023-02-01T14:20:47;6.00;99.90
34574;DHT22;20809;49.594;8.734;2023-02-01T14:26:59;6.00;99.90
34574;DHT22;20809;49.594;8.734;2023-02-01T14:30:06;6.00;99.90
34574;DHT22;20809;49.594;8.734;2023-02-01T14:33:17;6.00;99.90
34574;DHT22;20809;49.594;8.734;2023-02-01T14:36:20;6.00;99.90
34574;DHT22;20809;49.594;8.734;2023-02-01T14:43:04;6.00;99.90
34574;DHT22;20809;49.594;8.734;2023-02-01T14:46:10;6.00;99.90
34574;DHT22;20809;49.594;8.734;2023-02-01T14:49:11;5.90;99.90
34574;DHT22;20809;49.594;8.734;2023-02-01T14:52:18;6.00;99.90
34574;DHT22;20809;49.594;8.734;2023-02-01T14:55:35;5.90;99.90
34574;DHT22;20809;49.594;8.734;2023-02-01T14:59:11;6.00;99.90
34574;DHT22;20809;49.594;8.734;2023-02-01T15:02:23;6.00;99.90
34574;DHT22;20809;49.594;8.734;2023-02-01T15:05:30;6.00;99.90
34574;DHT22;20809;49.594;8.734;2023-02-01T15:08:34;6.00;99.90
34574;DHT22;20809;49.594;8.734;2023-02-01T15:15:13;6.10;99.90
34574;DHT22;20809;49.594;8.734;2023-02-01T15:18:16;6.10;99.90
34574;DHT22;20809;49.594;8.734;2023-02-01T15:21:21;6.10;99.90
34574;DHT22;20809;49.594;8.734;2023-02-01T15:24:28;6.20;99.90
34574;DHT22;20809;49.594;8.734;2023-02-01T15:27:30;6.20;99.90
34574;DHT22;20809;49.594;8.734;2023-02-01T15:30:33;6.20;99.90
34574;DHT22;20809;49.594;8.734;2023-02-01T15:33:34;6.20;99.90
34574;DHT22;20809;49.594;8.734;2023-02-01T15:36:35;6.20;99.90
34574;DHT22;20809;49.594;8.734;2023-02-01T15:43:04;6.20;99.90
34574;DHT22;20809;49.594;8.734;2023-02-01T15:46:12;6.20;99.90
34574;DHT22;20809;49.594;8.734;2023-02-01T15:49:29;6.30;99.90
34574;DHT22;20809;49.594;8.734;2023-02-01T15:52:37;6.30;99.90
34574;DHT22;20809;49.594;8.734;2023-02-01T15:55:41;6.40;99.90
34574;DHT22;20809;49.594;8.734;2023-02-01T15:58:45;6.40;99.90
34574;DHT22;20809;49.594;8.734;2023-02-01T16:01:48;6.30;99.90
34574;DHT22;20809;49.594;8.734;2023-02-01T16:04:50;6.30;99.90
34574;DHT22;20809;49.594;8.734;2023-02-01T16:08:03;6.40;99.90
34574;DHT22;20809;49.594;8.734;2023-02-01T16:14:08;6.40;99.90
34574;DHT22;20809;49.594;8.734;2023-02-01T16:17:08;6.30;99.90
34574;DHT22;20809;49.594;8.734;2023-02-01T16:20:10;6.30;99.90
34574;DHT22;20809;49.594;8.734;2023-02-01T16:23:13;6.30;99.90
34574;DHT22;20809;49.594;8.734;2023-02-01T16:26:14;6.30;99.90
34574;DHT22;20809;49.594;8.734;2023-02-01T16:29:15;6.30;99.90
34574;DHT22;20809;49.594;8.734;2023-02-01T16:32:19;6.30;99.90
34574;DHT22;20809;49.594;8.734;2023-02-01T16:35:27;6.30;99.90
34574;DHT22;20809;49.594;8.734;2023-02-01T16:38:28;6.20;99.90
34574;DHT22;20809;49.594;8.734;2023-02-01T16:41:30;6.20;99.90
34574;DHT22;20809;49.594;8.734;2023-02-01T16:44:31;6.20;99.90
34574;DHT22;20809;49.594;8.734;2023-02-01T16:47:32;6.20;99.90
34574;DHT22;20809;49.594;8.734;2023-02-01T16:50:34;6.20;99.90
34574;DHT22;20809;49.594;8.734;2023-02-01T16:53:35;6.20;99.90
34574;DHT22;20809;49.594;8.734;2023-02-01T16:56:36;6.20;99.90
34574;DHT22;20809;49.594;8.734;2023-02-01T16:59:37;6.30;99.90
34574;DHT22;20809;49.594;8.734;2023-02-01T17:02:38;6.20;99.90
34574;DHT22;20809;49.594;8.734;2023-02-01T17:05:39;6.20;99.90
34574;DHT22;20809;49.594;8.734;2023-02-01T17:08:42;6.20;99.90
34574;DHT22;20809;49.594;8.734;2023-02-01T17:11:43;6.20;99.90
34574;DHT22;20809;49.594;8.734;2023-02-01T17:14:44;6.20;99.90
34574;DHT22;20809;49.594;8.734;2023-02-01T17:17:45;6.20;99.90
34574;DHT22;20809;49.594;8.734;2023-02-01T17:20:45;6.20;99.90
34574;DHT22;20809;49.594;8.734;2023-02-01T17:23:47;6.20;99.90
34574;DHT22;20809;49.594;8.734;2023-02-01T17:26:48;6.20;99.90
34574;DHT22;20809;49.594;8.734;2023-02-01T17:29:50;6.20;99.90
34574;DHT22;20809;49.594;8.734;2023-02-01T17:32:53;6.20;99.90
34574;DHT22;20809;49.594;8.734;2023-02-01T17:35:56;6.20;99.90
34574;DHT22;20809;49.594;8.734;2023-02-01T17:38:57;6.10;99.90
34574;DHT22;20809;49.594;8.734;2023-02-01T17:41:59;6.10;99.90
34574;DHT22;20809;49.594;8.734;2023-02-01T17:45:26;6.10;99.90
34574;DHT22;20809;49.594;8.734;2023-02-01T17:48:22;6.10;99.90
34574;DHT22;20809;49.594;8.734;2023-02-01T17:51:26;6.20;99.90
34574;DHT22;20809;49.594;8.734;2023-02-01T17:54:27;6.20;99.90
34574;DHT22;20809;49.594;8.734;2023-02-01T17:57:28;6.20;99.90
34574;DHT22;20809;49.594;8.734;2023-02-01T18:00:28;6.20;99.90
34574;DHT22;20809;49.594;8.734;2023-02-01T18:03:30;6.20;99.90
34574;DHT22;20809;49.594;8.734;2023-02-01T18:06:34;6.20;99.90
34574;DHT22;20809;49.594;8.734;2023-02-01T18:09:34;6.20;99.90
34574;DHT22;20809;49.594;8.734;2023-02-01T18:12:35;6.20;99.90
34574;DHT22;20809;49.594;8.734;2023-02-01T18:15:37;6.20;99.90
34574;DHT22;20809;49.594;8.734;2023-02-01T18:18:39;6.20;99.90
34574;DHT22;20809;49.594;8.734;2023-02-01T18:21:41;6.20;99.90
34574;DHT22;20809;49.594;8.734;2023-02-01T18:24:42;6.20;99.90
34574;DHT22;20809;49.594;8.734;2023-02-01T18:27:43;6.20;99.90
34574;DHT22;20809;49.594;8.734;2023-02-01T18:30:47;6.20;99.90
34574;DHT22;20809;49.594;8.734;2023-02-01T18:33:49;6.10;99.90
34574;DHT22;20809;49.594;8.734;2023-02-01T18:36:50;6.10;99.90
34574;DHT22;20809;49.594;8.734;2023-02-01T18:39:51;6.10;99.90
34574;DHT22;20809;49.594;8.734;2023-02-01T18:42:52;6.10;99.90
34574;DHT22;20809;49.594;8.734;2023-02-01T18:45:53;6.10;99.90
34574;DHT22;20809;49.594;8.734;2023-02-01T18:48:54;6.10;99.90
34574;DHT22;20809;49.594;8.734;2023-02-01T18:51:55;6.10;99.90
34574;DHT22;20809;49.594;8.734;2023-02-01T18:54:56;6.10;99.90
34574;DHT22;20809;49.594;8.734;2023-02-01T18:58:01;6.10;99.90
34574;DHT22;20809;49.594;8.734;2023-02-01T19:01:07;6.10;99.90
34574;DHT22;20809;49.594;8.734;2023-02-01T19:04:08;6.10;99.90
34574;DHT22;20809;49.594;8.734;2023-02-01T19:07:09;6.10;99.90
34574;DHT22;20809;49.594;8.734;2023-02-01T19:10:16;6.10;99.90
34574;DHT22;20809;49.594;8.734;2023-02-01T19:13:17;6.00;99.90
34574;DHT22;20809;49.594;8.734;2023-02-01T19:16:22;6.10;99.90
34574;DHT22;20809;49.594;8.734;2023-02-01T19:19:24;6.10;99.90
34574;DHT22;20809;49.594;8.734;2023-02-01T19:22:25;6.10;99.90
34574;DHT22;20809;49.594;8.734;2023-02-01T19:25:26;6.10;99.90
34574;DHT22;20809;49.594;8.734;2023-02-01T19:28:27;6.10;99.90
34574;DHT22;20809;49.594;8.734;2023-02-01T19:31:28;6.10;99.90
34574;DHT22;20809;49.594;8.734;2023-02-01T19:34:29;6.10;99.90
34574;DHT22;20809;49.594;8.734;2023-02-01T19:37:30;6.10;99.90
34574;DHT22;20809;49.594;8.734;2023-02-01T19:40:31;6.10;99.90
34574;DHT22;20809;49.594;8.734;2023-02-01T19:43:33;6.00;99.90
34574;DHT22;20809;49.594;8.734;2023-02-01T19:46:36;6.00;99.90
34574;DHT22;20809;49.594;8.734;2023-02-01T19:49:37;6.00;99.90
34574;DHT22;20809;49.594;8.734;2023-02-01T19:52:38;6.10;99.90
34574;DHT22;20809;49.594;8.734;2023-02-01T19:55:44;6.00;99.90
34574;DHT22;20809;49.594;8.734;2023-02-01T19:58:45;6.10;99.90
34574;DHT22;20809;49.594;8.734;2023-02-01T20:01:46;6.10;99.90
34574;DHT22;20809;49.594;8.734;2023-02-01T20:04:47;6.10;99.90
34574;DHT22;20809;49.594;8.734;2023-02-01T20:07:47;6.10;99.90
34574;DHT22;20809;49.594;8.734;2023-02-01T20:10:48;6.10;99.90
34574;DHT22;20809;49.594;8.734;2023-02-01T20:13:49;6.10;99.90
34574;DHT22;20809;49.594;8.734;2023-02-01T20:16:50;6.10;99.90
34574;DHT22;20809;49.594;8.734;2023-02-01T20:19:50;6.10;99.90
34574;DHT22;20809;49.594;8.734;2023-02-01T20:22:52;6.20;99.90
34574;DHT22;20809;49.594;8.734;2023-02-01T20:25:53;6.20;99.90
34574;DHT22;20809;49.594;8.734;2023-02-01T20:28:54;6.20;99.90
34574;DHT22;20809;49.594;8.734;2023-02-01T20:31:55;6.20;99.90
34574;DHT22;20809;49.594;8.734;2023-02-01T20:34:56;6.20;99.90
34574;DHT22;20809;49.594;8.734;2023-02-01T20:37:56;6.20;99.90
34574;DHT22;20809;49.594;8.734;2023-02-01T20:41:06;6.30;99.90
34574;DHT22;20809;49.594;8.734;2023-02-01T20:44:08;6.30;99.90
34574;DHT22;20809;49.594;8.734;2023-02-01T20:47:09;6.30;99.90
34574;DHT22;20809;49.594;8.734;2023-02-01T20:50:10;6.30;99.90
34574;DHT22;20809;49.594;8.734;2023-02-01T20:53:11;6.30;99.90
34574;DHT22;20809;49.594;8.734;2023-02-01T20:56:13;6.40;99.90
34574;DHT22;20809;49.594;8.734;2023-02-01T20:59:14;6.30;99.90
34574;DHT22;20809;49.594;8.734;2023-02-01T21:02:15;6.30;99.90
34574;DHT22;20809;49.594;8.734;2023-02-01T21:05:16;6.30;99.90
34574;DHT22;20809;49.594;8.734;2023-02-01T21:08:18;6.30;99.90
34574;DHT22;20809;49.594;8.734;2023-02-01T21:11:18;6.30;99.90
34574;DHT22;20809;49.594;8.734;2023-02-01T21:14:19;6.30;99.90
34574;DHT22;20809;49.594;8.734;2023-02-01T21:17:20;6.30;99.90
34574;DHT22;20809;49.594;8.734;2023-02-01T21:20:21;6.30;99.90
34574;DHT22;20809;49.594;8.734;2023-02-01T21:23:22;6.30;99.90
34574;DHT22;20809;49.594;8.734;2023-02-01T21:26:24;6.30;99.90
34574;DHT22;20809;49.594;8.734;2023-02-01T21:29:25;6.30;99.90
34574;DHT22;20809;49.594;8.734;2023-02-01T21:32:26;6.30;99.90
34574;DHT22;20809;49.594;8.734;2023-02-01T21:35:27;6.30;99.90
34574;DHT22;20809;49.594;8.734;2023-02-01T21:38:28;6.30;99.90
34574;DHT22;20809;49.594;8.734;2023-02-01T21:41:30;6.30;99.90
34574;DHT22;20809;49.594;8.734;2023-02-01T21:44:50;6.30;99.90
34574;DHT22;20809;49.594;8.734;2023-02-01T21:47:51;6.30;99.90